CST,Max TemperatureF,Mean TemperatureF,Min TemperatureF,Max Dew PointF,MeanDew PointF,Min DewpointF,Max Humidity, Mean Humidity, Min Humidity, Max Sea Level PressureIn, Mean Sea Level PressureIn, Min Sea Level PressureIn, Max VisibilityMiles, Mean VisibilityMiles, Min VisibilityMiles, Max Wind SpeedMPH, Mean Wind SpeedMPH, Max Gust SpeedMPH,PrecipitationIn, CloudCover, Events, WindDirDegrees
2013-11-1,69,58,46,52,45,39,94,67,33,29.92,29.81,29.76,10,10,10,17,8,22,0.03,1,,258
2013-11-2,59,50,42,43,40,37,82,67,45,30.23,30.08,29.92,10,10,10,24,10,29,0.00,1,,305
2013-11-3,59,47,35,41,38,36,100,72,45,30.32,30.24,30.16,10,10,3,12,4,,0.00,0,,127
2013-11-4,59,52,44,52,46,39,100,80,59,30.26,30.21,30.17,10,10,6,20,6,23,0.07,1,,143
2013-11-5,64,58,51,54,51,48,94,78,63,30.27,30.18,30.09,10,10,8,18,5,24,0.04,6,,136
2013-11-6,64,58,51,61,54,48,100,86,72,30.32,30.11,30.00,10,9,2,22,16,28,0.26,8,,240
2013-11-7,57,50,39,41,38,32,93,65,44,30.45,30.37,30.32,10,10,3,12,7,,0.00,0,,291
2013-11-8,60,48,35,41,37,32,93,70,39,30.40,30.30,30.18,10,10,4,12,4,,0.00,0,,155
2013-11-9,60,51,42,48,44,37,93,78,59,30.25,30.21,30.16,10,10,7,21,8,22,0.00,4,,196
2013-11-10,62,52,42,46,41,36,100,70,39,30.40,30.33,30.25,10,10,3,17,6,23,0.00,0,,26
2013-11-11,66,52,37,50,42,34,93,71,43,30.31,30.24,30.17,10,10,8,18,4,24,0.00,6,,253
2013-11-12,53,34,14,45,23,14,100,65,36,30.72,30.61,30.30,10,8,2,22,15,31,0.00,3,,15
2013-11-13,44,25,6,37,16,-6,100,44,13,30.74,30.61,30.43,10,10,10,8,5,,0.00,0,,162
2013-11-14,53,40,28,23,19,12,55,42,28,30.42,30.27,30.13,10,10,8,23,9,28,0.00,0,,182
2013-11-15,55,47,39,43,33,21,67,56,39,30.14,30.07,30.00,10,10,2,15,7,,0.00,7,,163
2013-11-16,66,58,50,59,50,39,82,73,66,30.01,29.89,29.73,10,8,0,25,12,33,0.01,7,Thunderstorm,174
2013-11-17,82,68,50,66,51,27,100,63,26,30.03,29.75,29.62,10,10,7,32,22,44,0.13,4,,231
2013-11-18,64,52,41,36,26,21,53,37,22,30.29,30.19,30.03,10,10,9,17,8,24,0.00,0,,331
2013-11-19,51,43,35,27,24,21,65,50,33,30.34,30.26,30.19,10,10,6,14,7,,0.00,0,,36
2013-11-20,55,44,32,36,28,21,70,55,38,30.21,30.13,30.06,10,9,2,13,6,16,0.00,0,,115
2013-11-21,55,48,42,54,46,34,94,81,66,30.19,30.14,30.09,10,6,1,12,5,,0.63,7,,116
2013-11-22,55,47,39,54,42,30,94,80,70,30.47,30.35,30.18,10,8,2,20,10,24,0.19,8,,354
2013-11-23,44,36,26,32,21,7,75,54,31,30.66,30.55,30.46,10,10,10,22,13,26,0.01,3,,2
2013-11-24,30,26,21,16,10,7,59,50,44,30.73,30.62,30.47,10,10,10,17,12,22,0.00,1,,31
2013-11-25,33,32,30,27,20,14,80,63,48,30.45,30.31,30.19,10,10,5,9,4,,0.05,8,,73
2013-11-26,44,38,32,32,26,16,80,66,48,30.22,30.11,30.00,10,10,7,22,5,28,0.01,6,,348
2013-11-27,35,29,23,16,10,7,69,46,33,30.39,30.33,30.22,10,10,10,22,14,28,0.00,0,,329
2013-11-28,44,34,24,27,21,12,75,62,46,30.47,30.40,30.34,10,10,10,18,10,21,0.00,0,,189
2013-11-29,50,38,26,34,27,19,80,68,53,30.58,30.49,30.42,10,9,1,8,4,,0.00,0,,77
2013-11-30,53,40,28,37,30,21,80,66,47,30.41,30.30,30.18,10,10,8,18,7,26,0.00,0,,184